Riceville, Indiana
Current Conditions -  °F | °C
As of 2:55 AM on Friday 21 Nov 2014 (Local Time) from KHNB Reporting Station
Clear Clear  
Wind Chill: 19°   Ceiling: Unl
Heat Index: 19°   Visibility: 10mi
Dew Point: 14°   Wind: 3mph
Humidity: 80%   Direction: 340°NNW
Pressure: 30.41"   Gusts: NA
Location:  38.2817°N, 86.7167°W
Report Text: KHNB 210855Z AUTO 34003KT 10SM CLR M07/M10 A3041 RMK AO1 52020
Loading
Personal Weather Stations






























Interactive Weather Map New forecast layout! Learn more

10-Day Weather Forecast

Advertisements
Track Severe Weather on mobile